Time;durP1;ratioP1;P1;durP2;ratioP2;P2;SDS_P1;SDS_P2;PMS_P1;PMS_P2;Temp;Humidity;BMP_temperature;BMP_pressure;BME280_temperature;BME280_humidity;BME280_pressure;Samples;Min_cycle;Max_cycle;Signal;HPM_P1;HPM_P2
2021/10/28 00:14:26;;;;;;;8.73;6.10;;;8.30;99.90;;;;;;5034027;28;20459;-61
2021/10/28 00:16:58;;;;;;;8.10;5.67;;;8.30;99.90;;;;;;5033443;28;20932;-63
2021/10/28 00:19:27;;;;;;;7.33;4.83;;;8.30;99.90;;;;;;5031411;28;20595;-64
2021/10/28 00:21:55;;;;;;;7.30;5.77;;;8.30;99.90;;;;;;5014774;28;20947;-63
2021/10/28 00:24:22;;;;;;;8.83;5.23;;;8.30;99.90;;;;;;5014211;28;20467;-61
2021/10/28 00:26:49;;;;;;;9.50;6.60;;;8.40;99.90;;;;;;5014644;28;20426;-64
2021/10/28 00:29:18;;;;;;;7.07;4.80;;;8.40;99.90;;;;;;5014509;28;20222;-63
2021/10/28 00:31:47;;;;;;;11.90;5.20;;;8.50;99.90;;;;;;5014763;28;20436;-64
2021/10/28 00:34:15;;;;;;;8.27;6.47;;;8.60;99.90;;;;;;5014390;28;20497;-62
2021/10/28 00:36:46;;;;;;;8.03;5.20;;;8.70;99.90;;;;;;5014423;28;20425;-62
2021/10/28 00:39:15;;;;;;;6.17;4.80;;;8.60;99.90;;;;;;5014301;28;20471;-63
2021/10/28 00:41:42;;;;;;;5.10;4.60;;;8.60;99.90;;;;;;5014666;28;20419;-62
2021/10/28 00:44:10;;;;;;;8.00;5.40;;;8.60;99.90;;;;;;5014071;28;20823;-62
2021/10/28 00:46:39;;;;;;;10.23;5.77;;;8.80;99.90;;;;;;5014447;28;20512;-63
2021/10/28 00:49:10;;;;;;;7.23;5.50;;;9.00;99.90;;;;;;5013757;28;20467;-62
2021/10/28 00:51:39;;;;;;;12.40;5.10;;;9.00;99.90;;;;;;5034542;28;20967;-63
2021/10/28 00:54:09;;;;;;;8.17;5.20;;;9.00;99.90;;;;;;5033783;28;21000;-61
2021/10/28 00:56:41;;;;;;;9.70;6.57;;;9.00;99.90;;;;;;5034047;28;20782;-62
2021/10/28 00:59:08;;;;;;;8.70;5.80;;;9.10;99.90;;;;;;5016794;28;20467;-63
2021/10/28 01:01:36;;;;;;;7.20;5.60;;;9.10;99.90;;;;;;5013861;28;20420;-63
2021/10/28 01:04:04;;;;;;;8.07;6.00;;;9.10;99.90;;;;;;5013389;28;20476;-61
2021/10/28 01:06:32;;;;;;;5.67;4.63;;;9.10;99.90;;;;;;5014534;28;20964;-62
2021/10/28 01:08:59;;;;;;;9.80;7.30;;;9.10;99.90;;;;;;5013586;28;20499;-63
2021/10/28 01:11:27;;;;;;;8.10;5.80;;;9.20;99.90;;;;;;5014072;28;20944;-63
2021/10/28 01:13:57;;;;;;;7.17;4.90;;;9.10;99.90;;;;;;5013498;28;20465;-61
2021/10/28 01:16:25;;;;;;;7.23;5.33;;;9.10;99.90;;;;;;5013667;28;20429;-61
2021/10/28 01:18:53;;;;;;;8.53;5.70;;;9.10;99.90;;;;;;5013461;28;20460;-62
2021/10/28 01:21:20;;;;;;;7.13;5.10;;;9.20;99.90;;;;;;5031557;28;20454;-62
2021/10/28 01:23:49;;;;;;;8.40;5.37;;;9.20;99.90;;;;;;5032910;28;20472;-61
2021/10/28 01:26:17;;;;;;;8.53;5.73;;;9.20;99.90;;;;;;5033253;28;20424;-61
2021/10/28 01:28:57;;;;;;;9.97;6.10;;;9.20;99.90;;;;;;5023650;28;20463;-63
2021/10/28 01:31:27;;;;;;;8.10;5.10;;;9.30;99.90;;;;;;5013719;28;20429;-63
2021/10/28 01:33:55;;;;;;;6.50;5.30;;;9.30;99.90;;;;;;5013079;28;20476;-62
2021/10/28 01:36:24;;;;;;;5.77;5.03;;;9.30;99.90;;;;;;5013277;28;20445;-60
2021/10/28 01:38:52;;;;;;;6.70;5.47;;;9.20;99.90;;;;;;5013162;28;20543;-63
2021/10/28 01:41:19;;;;;;;6.17;4.97;;;9.30;99.90;;;;;;5013440;28;20475;-63
2021/10/28 01:43:47;;;;;;;7.13;5.13;;;9.20;99.90;;;;;;5012919;28;20830;-61
2021/10/28 01:46:14;;;;;;;7.77;5.67;;;9.00;99.90;;;;;;5013112;28;20938;-61
2021/10/28 01:48:42;;;;;;;6.30;5.20;;;9.00;99.90;;;;;;5012932;28;20547;-63
2021/10/28 01:51:10;;;;;;;5.47;4.93;;;9.00;99.90;;;;;;5013252;28;20555;-63
2021/10/28 01:53:42;;;;;;;6.30;4.70;;;8.90;99.90;;;;;;5013163;28;20465;-61
2021/10/28 01:56:09;;;;;;;7.00;5.30;;;8.90;99.90;;;;;;5012908;28;20433;-62
2021/10/28 01:58:36;;;;;;;7.47;4.97;;;8.90;99.90;;;;;;5012755;28;20461;-64
2021/10/28 02:01:06;;;;;;;6.53;5.30;;;8.90;99.90;;;;;;5013341;28;20420;-63
2021/10/28 02:03:34;;;;;;;6.37;5.20;;;8.90;99.90;;;;;;5012357;28;20553;-61
2021/10/28 02:06:02;;;;;;;6.73;5.13;;;9.10;99.90;;;;;;5017473;28;20440;-61
2021/10/28 02:08:28;;;;;;;7.23;5.40;;;9.20;99.90;;;;;;5032807;28;21012;-63
2021/10/28 02:10:55;;;;;;;7.67;5.97;;;9.30;99.90;;;;;;5032730;28;20455;-63
2021/10/28 02:13:25;;;;;;;7.80;6.60;;;9.30;99.90;;;;;;5027928;28;20460;-61
2021/10/28 02:15:52;;;;;;;7.67;5.57;;;9.20;99.90;;;;;;5012921;28;20872;-61
2021/10/28 02:18:20;;;;;;;7.17;6.10;;;9.20;99.90;;;;;;5027296;28;20513;-64
2021/10/28 02:20:47;;;;;;;8.30;5.90;;;9.30;99.90;;;;;;5013014;28;20539;-63
2021/10/28 02:23:14;;;;;;;8.40;5.83;;;9.30;99.90;;;;;;5012010;28;20461;-62
2021/10/28 02:25:40;;;;;;;7.53;6.47;;;9.40;99.90;;;;;;5013694;28;20464;-60
2021/10/28 02:28:07;;;;;;;10.63;6.90;;;9.30;99.90;;;;;;5027363;28;20425;-61
2021/10/28 02:30:36;;;;;;;8.60;6.37;;;9.30;99.90;;;;;;5012994;28;20464;-63
2021/10/28 02:33:03;;;;;;;9.60;6.70;;;9.20;99.90;;;;;;5012648;28;20867;-62
2021/10/28 02:35:30;;;;;;;9.43;6.60;;;9.20;99.90;;;;;;5011953;28;20831;-61
2021/10/28 02:37:57;;;;;;;8.90;5.80;;;9.20;99.90;;;;;;5011127;28;20424;-63
2021/10/28 02:40:28;;;;;;;9.80;6.57;;;9.20;99.90;;;;;;5012208;28;20491;-63
2021/10/28 02:42:55;;;;;;;7.33;6.23;;;9.10;99.90;;;;;;5012464;28;20520;-62
2021/10/28 02:45:22;;;;;;;8.47;5.87;;;9.20;99.90;;;;;;5022866;28;20469;-61
2021/10/28 02:47:50;;;;;;;10.70;6.80;;;9.20;99.90;;;;;;5027567;28;20422;-63
2021/10/28 02:50:19;;;;;;;7.50;5.20;;;9.10;99.90;;;;;;5011764;28;20472;-63
2021/10/28 02:52:45;;;;;;;11.77;7.83;;;9.10;99.90;;;;;;5012329;28;20898;-62
2021/10/28 02:55:12;;;;;;;7.83;6.40;;;9.10;99.90;;;;;;5011725;28;20461;-62
2021/10/28 02:57:41;;;;;;;13.50;7.10;;;9.10;99.90;;;;;;5011991;28;20930;-62
2021/10/28 03:00:10;;;;;;;10.07;7.10;;;9.10;99.90;;;;;;5011970;28;21021;-64
2021/10/28 03:02:37;;;;;;;9.43;6.40;;;9.00;99.90;;;;;;5014287;28;20423;-64
2021/10/28 03:05:05;;;;;;;10.50;7.00;;;8.90;99.90;;;;;;5025904;28;20504;-62
2021/10/28 03:07:33;;;;;;;9.35;6.50;;;9.00;99.90;;;;;;5031615;28;20798;-63
2021/10/28 03:10:03;;;;;;;10.50;7.40;;;9.00;99.90;;;;;;5031436;28;20290;-63
2021/10/28 03:12:30;;;;;;;10.33;7.70;;;9.00;99.90;;;;;;5025538;28;20450;-63
2021/10/28 03:15:01;;;;;;;10.35;7.30;;;9.00;99.90;;;;;;5011991;28;20472;-62
2021/10/28 03:25:40;;;;;;;10.63;7.37;;;8.90;99.90;;;;;;5014509;28;20471;-61
2021/10/28 03:28:17;;;;;;;13.93;7.70;;;8.90;99.90;;;;;;5015858;28;20551;-63
2021/10/28 03:30:45;;;;;;;11.57;7.90;;;8.90;99.90;;;;;;5016173;28;20454;-63
2021/10/28 03:33:15;;;;;;;10.85;8.55;;;8.90;99.90;;;;;;5015719;28;20421;-63
2021/10/28 03:35:45;;;;;;;13.60;8.33;;;8.90;99.90;;;;;;5015892;28;20212;-62
2021/10/28 03:38:32;;;;;;;11.70;8.15;;;8.80;99.90;;;;;;5030153;28;20435;-64
2021/10/28 04:06:08;;;;;;;10.70;8.43;;;8.70;99.90;;;;;;5023072;28;20221;-61
2021/10/28 04:16:58;;;;;;;14.53;9.43;;;8.60;99.90;;;;;;4995889;28;20567;-62
2021/10/28 04:19:41;;;;;;;13.73;8.57;;;8.60;99.90;;;;;;5014310;28;20456;-63
2021/10/28 04:30:24;;;;;;;12.38;8.55;;;8.40;99.90;;;;;;5014049;28;20228;-63
2021/10/28 04:32:53;;;;;;;14.23;9.20;;;8.40;99.90;;;;;;5014919;28;20669;-63
2021/10/28 04:35:21;;;;;;;13.48;9.05;;;8.40;99.90;;;;;;5014224;28;20228;-62
2021/10/28 04:37:48;;;;;;;13.13;8.70;;;8.40;99.90;;;;;;5014576;28;20225;-61
2021/10/28 04:40:16;;;;;;;11.25;7.72;;;8.40;99.90;;;;;;5014224;28;20636;-63
2021/10/28 04:42:43;;;;;;;12.30;9.35;;;8.40;99.90;;;;;;5029623;28;20701;-64
2021/10/28 04:45:11;;;;;;;11.05;7.82;;;8.40;99.90;;;;;;5013995;28;20276;-61
2021/10/28 04:47:38;;;;;;;14.55;9.10;;;8.40;99.90;;;;;;5014357;28;20275;-61
2021/10/28 04:50:06;;;;;;;15.80;9.02;;;8.30;99.90;;;;;;5014123;28;20225;-63
2021/10/28 04:52:33;;;;;;;11.23;7.93;;;8.30;99.90;;;;;;5014391;28;20283;-63
2021/10/28 04:55:00;;;;;;;13.88;8.55;;;8.30;99.90;;;;;;5013951;28;20723;-61
2021/10/28 04:57:26;;;;;;;13.38;7.82;;;8.20;99.90;;;;;;5013901;28;20187;-61
2021/10/28 04:59:53;;;;;;;16.20;8.45;;;8.30;99.90;;;;;;5013704;28;20709;-62
2021/10/28 05:02:20;;;;;;;16.10;8.75;;;8.30;99.90;;;;;;5014212;28;20186;-62
2021/10/28 05:04:47;;;;;;;11.57;8.90;;;8.30;99.90;;;;;;5013709;28;20222;-61
2021/10/28 05:07:14;;;;;;;14.20;9.30;;;8.30;99.90;;;;;;5013902;28;20576;-62
2021/10/28 05:09:43;;;;;;;15.45;9.75;;;8.20;99.90;;;;;;5013602;28;20249;-63
2021/10/28 05:12:10;;;;;;;13.20;9.48;;;8.20;99.90;;;;;;5027362;28;20592;-63
2021/10/28 05:14:37;;;;;;;11.38;8.13;;;8.20;99.90;;;;;;5028161;28;20233;-63
2021/10/28 05:17:04;;;;;;;13.10;8.07;;;8.20;99.90;;;;;;5013933;28;20547;-61
2021/10/28 05:19:37;;;;;;;15.73;8.40;;;8.20;99.90;;;;;;5013509;28;20209;-62
2021/10/28 05:22:07;;;;;;;9.40;7.00;;;8.10;99.90;;;;;;5013924;28;20554;-63
2021/10/28 05:24:35;;;;;;;12.40;7.72;;;8.10;99.90;;;;;;5012979;28;20492;-63
2021/10/28 05:27:02;;;;;;;11.40;7.72;;;8.00;99.90;;;;;;5013980;28;20210;-61
2021/10/28 05:29:49;;;;;;;12.77;8.10;;;8.00;99.90;;;;;;5028152;28;20215;-62
2021/10/28 05:32:15;;;;;;;9.65;7.47;;;8.00;99.90;;;;;;5014743;28;20174;-62
2021/10/28 05:34:44;;;;;;;10.73;6.95;;;8.00;99.90;;;;;;5014455;28;20221;-63
2021/10/28 05:37:11;;;;;;;10.60;8.15;;;8.00;99.90;;;;;;5013546;28;20394;-61
2021/10/28 05:39:37;;;;;;;9.75;6.85;;;8.00;99.90;;;;;;5013046;28;20298;-64
2021/10/28 05:42:22;;;;;;;8.05;6.45;;;8.00;99.90;;;;;;5013750;28;20555;-62
2021/10/28 05:44:49;;;;;;;10.70;7.22;;;8.00;99.90;;;;;;5026932;28;20278;-63
2021/10/28 05:47:16;;;;;;;11.50;8.40;;;8.00;99.90;;;;;;5011694;28;20182;-62
2021/10/28 05:49:44;;;;;;;10.93;7.00;;;8.00;99.90;;;;;;5011733;28;20483;-63
2021/10/28 05:52:11;;;;;;;11.30;8.30;;;7.90;99.90;;;;;;5022187;28;20264;-63
2021/10/28 05:54:37;;;;;;;10.40;8.23;;;7.90;99.90;;;;;;5046719;28;20221;-62
2021/10/28 05:57:06;;;;;;;10.23;7.18;;;7.80;99.90;;;;;;5052678;28;20275;-61
2021/10/28 05:59:33;;;;;;;7.32;5.80;;;7.80;99.90;;;;;;5031540;28;20218;-62
2021/10/28 06:02:00;;;;;;;8.35;7.25;;;7.80;99.90;;;;;;5052763;28;20267;-62
2021/10/28 06:04:27;;;;;;;9.95;7.15;;;7.70;99.90;;;;;;5045513;28;20281;-63
2021/10/28 06:06:54;;;;;;;12.27;7.65;;;7.60;99.90;;;;;;5019970;28;20215;-62
2021/10/28 06:09:20;;;;;;;7.07;5.60;;;7.60;99.90;;;;;;5032161;28;20217;-63
2021/10/28 06:11:48;;;;;;;8.57;6.95;;;7.60;99.90;;;;;;5038333;28;20188;-62
2021/10/28 06:14:22;;;;;;;11.63;7.40;;;7.60;99.90;;;;;;5032575;28;20227;-62
2021/10/28 06:16:57;;;;;;;7.85;6.38;;;7.60;99.90;;;;;;5012699;28;20660;-60
2021/10/28 06:19:24;;;;;;;9.68;6.88;;;7.60;99.90;;;;;;5011047;28;20221;-63
2021/10/28 06:21:51;;;;;;;7.88;6.70;;;7.60;99.90;;;;;;5012840;28;20191;-63
2021/10/28 06:24:18;;;;;;;10.10;6.68;;;7.60;99.90;;;;;;5012196;28;20229;-62
2021/10/28 06:26:45;;;;;;;8.90;6.40;;;7.60;99.90;;;;;;5012667;28;20274;-61
2021/10/28 06:29:11;;;;;;;7.28;5.88;;;7.50;99.90;;;;;;5027413;28;20276;-61
2021/10/28 06:31:38;;;;;;;7.95;6.00;;;7.50;99.90;;;;;;5012804;28;20251;-63
2021/10/28 06:34:17;;;;;;;8.38;5.97;;;7.50;99.90;;;;;;5011857;28;20233;-61
2021/10/28 06:36:46;;;;;;;8.10;6.03;;;7.50;99.90;;;;;;5011314;28;20570;-62
2021/10/28 06:39:13;;;;;;;12.10;5.72;;;7.50;99.90;;;;;;5026833;28;20244;-62
2021/10/28 06:41:40;;;;;;;7.63;6.00;;;7.70;99.90;;;;;;5012583;28;20187;-63
2021/10/28 06:44:07;;;;;;;9.30;6.05;;;7.80;99.90;;;;;;5011862;28;20221;-63
2021/10/28 06:46:35;;;;;;;7.85;6.03;;;7.90;99.90;;;;;;5012303;28;20183;-61
2021/10/28 06:49:06;;;;;;;7.75;6.10;;;7.90;99.90;;;;;;5028658;28;20213;-60
2021/10/28 06:51:39;;;;;;;9.20;6.97;;;7.90;99.90;;;;;;5027074;28;20209;-62
2021/10/28 06:54:10;;;;;;;9.45;6.75;;;8.00;99.90;;;;;;5016593;28;20264;-62
2021/10/28 07:04:35;;;;;;;8.30;6.03;;;8.10;99.90;;;;;;5013683;28;20216;-63
2021/10/28 07:07:02;;;;;;;7.82;6.07;;;8.10;99.90;;;;;;5029726;28;20180;-61
2021/10/28 07:09:34;;;;;;;8.05;6.85;;;8.20;99.90;;;;;;5066825;28;20219;-61
2021/10/28 07:12:28;;;;;;;9.93;6.75;;;8.20;99.90;;;;;;5050624;28;20234;-62
2021/10/28 07:14:52;;;;;;;8.73;7.38;;;8.30;99.90;;;;;;5033161;28;20215;-63
2021/10/28 07:34:02;;;;;;;12.03;6.93;;;8.60;99.90;;;;;;5048177;28;20248;-63
2021/10/28 07:59:04;;;;;;;7.90;6.03;;;9.10;99.90;;;;;;5009272;28;20461;-61
2021/10/28 08:04:54;;;;;;;9.90;6.00;;;9.10;99.90;;;;;;5033269;28;20995;-62
2021/10/28 08:23:33;;;;;;;10.20;6.70;;;9.80;99.90;;;;;;5043745;28;20815;-62
2021/10/28 08:28:54;;;;;;;11.60;7.57;;;10.10;99.90;;;;;;5046957;28;20850;-61
2021/10/28 08:31:22;;;;;;;10.40;6.80;;;10.30;99.90;;;;;;5047163;28;21009;-61
2021/10/28 08:33:49;;;;;;;9.70;6.47;;;10.40;99.90;;;;;;5046564;28;20467;-61
2021/10/28 08:36:26;;;;;;;8.87;7.57;;;10.50;99.90;;;;;;5044945;28;20929;-61
2021/10/28 08:38:54;;;;;;;9.13;7.40;;;10.50;99.90;;;;;;5052994;28;20534;-60
2021/10/28 08:41:23;;;;;;;7.93;6.00;;;10.60;99.90;;;;;;5041123;28;20430;-61
2021/10/28 08:43:53;;;;;;;8.80;7.07;;;10.60;99.90;;;;;;5035984;28;20555;-61
2021/10/28 08:46:24;;;;;;;7.43;6.33;;;10.70;99.90;;;;;;5014481;28;20475;-61
2021/10/28 08:48:57;;;;;;;9.40;7.00;;;10.80;99.90;;;;;;5014138;28;20531;-61
2021/10/28 08:51:40;;;;;;;14.93;7.60;;;10.90;99.90;;;;;;5021269;28;20443;-61
2021/10/28 09:00:06;;;;;;;10.27;8.37;;;11.10;99.90;;;;;;5036156;28;20479;-60
2021/10/28 09:25:48;;;;;;;11.83;7.77;;;11.90;99.90;;;;;;5016112;28;20477;-61
2021/10/28 09:28:42;;;;;;;11.77;8.03;;;12.00;99.90;;;;;;5038364;28;20485;-60
2021/10/28 09:31:12;;;;;;;10.37;7.63;;;12.00;99.90;;;;;;5029191;28;20446;-61
2021/10/28 09:34:01;;;;;;;9.40;8.20;;;11.90;99.90;;;;;;5028522;28;20552;-61
2021/10/28 09:45:57;;;;;;;13.00;7.93;;;12.20;99.90;;;;;;5023425;28;20511;-61
2021/10/28 09:51:14;;;;;;;9.10;7.00;;;12.30;99.90;;;;;;5019983;28;20507;-60
2021/10/28 09:54:12;;;;;;;11.47;8.50;;;12.40;99.90;;;;;;5012666;28;20538;-60
2021/10/28 09:59:47;;;;;;;12.90;8.67;;;12.30;99.90;;;;;;5012640;28;20499;-60
2021/10/28 10:02:16;;;;;;;11.73;8.10;;;12.40;99.90;;;;;;5013351;28;20423;-60
2021/10/28 10:04:46;;;;;;;10.10;8.30;;;12.40;99.90;;;;;;5011469;28;20476;-62
2021/10/28 10:07:18;;;;;;;10.77;8.60;;;12.40;99.90;;;;;;5012865;28;20423;-60
2021/10/28 10:09:46;;;;;;;9.87;8.83;;;12.40;99.90;;;;;;5012409;28;20945;-60
2021/10/28 10:12:15;;;;;;;9.80;8.80;;;12.50;99.90;;;;;;5012010;28;20437;-61
2021/10/28 10:14:44;;;;;;;12.23;9.70;;;12.50;99.90;;;;;;5012513;28;20491;-62
2021/10/28 10:17:13;;;;;;;15.27;10.23;;;12.50;99.90;;;;;;5027970;28;20803;-59
2021/10/28 10:19:44;;;;;;;11.53;8.27;;;12.50;99.90;;;;;;5012489;28;20476;-60
2021/10/28 10:22:29;;;;;;;13.17;9.83;;;12.60;99.90;;;;;;5028262;28;20477;-61
2021/10/28 10:25:06;;;;;;;14.63;8.83;;;12.70;99.90;;;;;;5055596;28;20482;-60
2021/10/28 11:15:40;;;;;;;10.50;8.57;;;13.90;99.90;;;;;;5019088;28;20550;-61
2021/10/28 13:02:06;;;;;;;7.17;6.40;;;16.00;99.90;;;;;;5052596;28;20519;-61
2021/10/28 13:57:30;;;;;;;7.23;3.43;;;17.10;80.70;;;;;;5052872;28;20429;-62
2021/10/28 14:19:48;;;;;;;4.60;3.23;;;17.10;79.30;;;;;;5012749;28;21259;-61
2021/10/28 15:28:22;;;;;;;6.10;3.00;;;15.80;87.90;;;;;;5011472;28;20449;-63
2021/10/28 15:47:19;;;;;;;5.93;4.33;;;15.60;90.00;;;;;;5010727;28;20469;-63
2021/10/28 16:00:37;;;;;;;4.87;4.00;;;15.20;91.50;;;;;;5030911;28;20585;-62
2021/10/28 16:22:27;;;;;;;7.53;5.47;;;14.50;94.50;;;;;;5029423;28;20447;-61
2021/10/28 16:24:54;;;;;;;7.17;5.20;;;14.40;95.00;;;;;;5050432;28;20534;-62
2021/10/28 16:27:21;;;;;;;6.90;4.17;;;14.30;95.10;;;;;;5034448;28;20470;-63
2021/10/28 16:29:49;;;;;;;5.30;4.47;;;14.20;96.10;;;;;;5025537;28;20571;-63
2021/10/28 16:32:16;;;;;;;5.40;4.87;;;14.00;98.00;;;;;;5013969;28;20795;-61
2021/10/28 16:34:44;;;;;;;4.70;4.30;;;13.90;99.90;;;;;;5013992;28;20984;-61
2021/10/28 16:37:13;;;;;;;4.50;4.10;;;13.70;99.90;;;;;;5014531;28;20610;-62
2021/10/28 16:39:41;;;;;;;5.77;5.03;;;13.60;99.90;;;;;;5048706;28;20533;-62
2021/10/28 16:42:08;;;;;;;5.57;4.40;;;13.40;99.90;;;;;;5054594;28;20434;-62
2021/10/28 16:44:37;;;;;;;8.83;7.93;;;13.20;99.90;;;;;;5038236;28;20477;-63
2021/10/28 16:47:04;;;;;;;10.00;7.00;;;13.20;99.90;;;;;;5014696;28;20461;-63
2021/10/28 16:49:32;;;;;;;8.00;6.50;;;13.20;99.90;;;;;;5014095;28;20510;-63
2021/10/28 16:51:58;;;;;;;7.93;7.00;;;13.30;99.90;;;;;;5014485;28;20440;-61
2021/10/28 16:54:26;;;;;;;8.27;7.10;;;13.20;99.90;;;;;;5013845;28;20841;-63
2021/10/28 16:56:53;;;;;;;8.47;6.97;;;13.20;99.90;;;;;;5029567;28;20437;-63
2021/10/28 16:59:20;;;;;;;9.40;8.13;;;13.20;99.90;;;;;;5013741;28;20484;-63
2021/10/28 17:01:47;;;;;;;12.30;7.90;;;13.10;99.90;;;;;;5014460;28;20436;-62
2021/10/28 17:04:14;;;;;;;11.77;8.70;;;13.10;99.90;;;;;;5028563;28;20469;-62
2021/10/28 17:06:41;;;;;;;9.90;7.90;;;13.10;99.90;;;;;;5014250;28;20461;-62
2021/10/28 17:09:08;;;;;;;9.40;7.17;;;13.10;99.90;;;;;;5013660;28;20460;-63
2021/10/28 17:11:37;;;;;;;12.80;8.77;;;13.00;99.90;;;;;;5014463;28;20874;-62
2021/10/28 17:14:05;;;;;;;9.67;8.53;;;12.90;99.90;;;;;;5044023;28;20461;-62
2021/10/28 17:16:32;;;;;;;11.13;8.73;;;12.90;99.90;;;;;;5053629;28;21094;-63
2021/10/28 17:18:59;;;;;;;13.17;8.90;;;12.80;99.90;;;;;;5040904;28;20458;-63
2021/10/28 17:21:26;;;;;;;9.60;8.60;;;12.70;99.90;;;;;;5030286;28;20449;-61
2021/10/28 17:24:00;;;;;;;15.70;10.30;;;12.70;99.90;;;;;;5031265;28;20481;-62
2021/10/28 17:26:29;;;;;;;11.60;9.33;;;12.60;99.90;;;;;;5052169;28;20462;-64
2021/10/28 17:29:00;;;;;;;14.37;10.30;;;12.50;99.90;;;;;;5044003;28;20468;-62
2021/10/28 17:31:30;;;;;;;15.27;10.03;;;12.50;99.90;;;;;;5013660;28;20426;-61
2021/10/28 17:33:58;;;;;;;13.00;9.60;;;12.50;99.90;;;;;;5012961;28;20477;-62
2021/10/28 17:36:26;;;;;;;12.83;10.13;;;12.50;99.90;;;;;;5028937;28;20450;-63
2021/10/28 17:38:54;;;;;;;11.53;9.53;;;12.40;99.90;;;;;;5029083;28;20498;-65
2021/10/28 17:41:21;;;;;;;14.53;9.83;;;12.30;99.90;;;;;;5046568;28;20783;-62
2021/10/28 17:43:54;;;;;;;11.57;9.37;;;12.30;99.90;;;;;;5030379;28;20546;-62
2021/10/28 17:46:24;;;;;;;12.10;10.03;;;12.30;99.90;;;;;;5033060;28;20480;-62
2021/10/28 17:48:52;;;;;;;11.73;9.73;;;12.20;99.90;;;;;;5032998;28;20870;-62
2021/10/28 17:51:21;;;;;;;13.93;10.40;;;12.20;99.90;;;;;;5015606;28;20483;-62
2021/10/28 17:53:48;;;;;;;17.20;10.70;;;12.10;99.90;;;;;;5013054;28;20498;-61
2021/10/28 17:56:16;;;;;;;12.50;9.20;;;12.10;99.90;;;;;;5017750;28;20425;-63
2021/10/28 17:58:44;;;;;;;13.33;9.50;;;12.00;99.90;;;;;;5030537;28;20466;-63
2021/10/28 18:01:14;;;;;;;14.37;9.33;;;12.00;99.90;;;;;;5013465;28;20424;-61
2021/10/28 18:03:41;;;;;;;16.97;10.60;;;12.00;99.90;;;;;;5012702;28;21056;-61
2021/10/28 18:06:09;;;;;;;11.50;9.20;;;12.00;99.90;;;;;;5028366;28;20476;-63
2021/10/28 18:08:36;;;;;;;13.77;9.40;;;11.90;99.90;;;;;;5021932;28;20834;-63
2021/10/28 18:11:03;;;;;;;11.40;9.70;;;11.90;99.90;;;;;;5031734;28;20416;-61
2021/10/28 18:13:30;;;;;;;13.60;9.43;;;11.90;99.90;;;;;;5035417;28;20897;-61
2021/10/28 18:15:57;;;;;;;13.57;9.80;;;11.80;99.90;;;;;;5039356;28;20432;-63
2021/10/28 18:18:25;;;;;;;13.70;9.90;;;11.80;99.90;;;;;;5032194;28;20531;-62
2021/10/28 18:21:02;;;;;;;16.37;9.73;;;11.80;99.90;;;;;;5022957;28;20451;-61
2021/10/28 18:23:31;;;;;;;11.77;9.70;;;11.80;99.90;;;;;;5012076;28;21017;-61
2021/10/28 18:25:59;;;;;;;11.27;9.77;;;11.70;99.90;;;;;;5012800;28;20509;-63
2021/10/28 18:28:27;;;;;;;12.60;9.20;;;11.70;99.90;;;;;;5012020;28;20493;-63
2021/10/28 18:30:55;;;;;;;11.47;9.37;;;11.60;99.90;;;;;;5017861;28;20444;-62
2021/10/28 18:33:22;;;;;;;14.40;11.87;;;11.60;99.90;;;;;;5052054;28;20474;-62
2021/10/28 18:35:49;;;;;;;14.20;11.03;;;11.60;99.90;;;;;;5023907;28;20455;-63
2021/10/28 18:38:16;;;;;;;10.73;9.60;;;11.50;99.90;;;;;;5011826;28;20510;-63
2021/10/28 18:40:43;;;;;;;10.50;9.23;;;11.50;99.90;;;;;;5012479;28;20435;-63
2021/10/28 18:43:16;;;;;;;11.00;8.70;;;11.40;99.90;;;;;;5012147;28;20440;-61
2021/10/28 18:45:44;;;;;;;10.60;8.70;;;11.40;99.90;;;;;;5027608;28;20477;-62
2021/10/28 18:48:11;;;;;;;13.57;9.50;;;11.40;99.90;;;;;;5011604;28;20555;-63
2021/10/28 18:50:37;;;;;;;11.17;8.20;;;11.40;99.90;;;;;;5011855;28;20440;-63
2021/10/28 18:53:05;;;;;;;13.43;10.10;;;11.40;99.90;;;;;;5011999;28;20422;-61
2021/10/28 18:55:32;;;;;;;10.30;8.50;;;11.40;99.90;;;;;;5012174;28;20883;-64
2021/10/28 18:57:59;;;;;;;10.30;8.90;;;11.30;99.90;;;;;;5012117;28;20425;-62
2021/10/28 19:00:26;;;;;;;13.23;9.93;;;11.30;99.90;;;;;;5012010;28;20534;-63
2021/10/28 19:02:53;;;;;;;14.77;10.03;;;11.30;99.90;;;;;;5027535;28;20421;-61
2021/10/28 19:05:21;;;;;;;11.17;9.50;;;11.20;99.90;;;;;;5011064;28;20896;-63
2021/10/28 19:07:48;;;;;;;14.10;10.50;;;11.30;99.90;;;;;;5023425;28;20465;-64
2021/10/28 19:10:15;;;;;;;13.10;9.37;;;11.20;99.90;;;;;;5051323;28;21034;-64
2021/10/28 19:12:44;;;;;;;12.27;9.10;;;11.30;99.90;;;;;;5051775;28;20682;-61
2021/10/28 19:15:11;;;;;;;13.80;9.50;;;11.20;99.90;;;;;;5012578;28;20528;-62
2021/10/28 19:17:42;;;;;;;10.93;8.67;;;11.20;99.90;;;;;;5026886;28;20426;-63
2021/10/28 19:20:10;;;;;;;14.37;9.70;;;11.30;99.90;;;;;;5011602;28;20998;-62
2021/10/28 19:22:37;;;;;;;9.77;7.70;;;11.30;99.90;;;;;;5012208;28;20587;-61
2021/10/28 19:25:06;;;;;;;12.07;9.93;;;11.30;99.90;;;;;;5011484;28;20531;-62
2021/10/28 19:27:37;;;;;;;13.03;9.10;;;11.30;99.90;;;;;;5011637;28;20499;-62
2021/10/28 19:30:24;;;;;;;11.00;7.63;;;11.20;99.90;;;;;;5011890;28;20470;-63
2021/10/28 19:32:52;;;;;;;8.63;7.70;;;11.20;99.90;;;;;;5012237;28;20421;-61
2021/10/28 19:35:22;;;;;;;13.37;9.53;;;11.10;99.90;;;;;;5011685;28;20557;-63
2021/10/28 19:37:56;;;;;;;9.83;8.20;;;11.10;99.90;;;;;;5011688;28;20993;-64
2021/10/28 19:41:17;;;;;;;12.23;9.33;;;11.10;99.90;;;;;;5011483;28;20467;-63
2021/10/28 19:48:31;;;;;;;11.83;9.30;;;11.00;99.90;;;;;;5011136;28;20468;-64
2021/10/28 19:50:59;;;;;;;12.13;9.67;;;11.00;99.90;;;;;;5020722;28;20483;-62
2021/10/28 19:53:26;;;;;;;12.10;10.23;;;11.00;99.90;;;;;;5011275;28;20468;-61
2021/10/28 19:55:53;;;;;;;11.77;8.97;;;11.00;99.90;;;;;;5011649;28;20519;-63
2021/10/28 19:58:24;;;;;;;12.00;8.90;;;10.90;99.90;;;;;;5011013;28;20932;-63
2021/10/28 20:01:03;;;;;;;12.80;9.33;;;10.90;99.90;;;;;;5042898;28;20425;-62
2021/10/28 20:03:44;;;;;;;12.43;9.83;;;10.90;99.90;;;;;;5030541;28;20452;-62
2021/10/28 20:06:28;;;;;;;12.47;10.60;;;10.90;99.90;;;;;;5024616;28;20530;-62
2021/10/28 20:22:32;;;;;;;13.70;11.60;;;10.60;99.90;;;;;;5015281;28;20425;-61
2021/10/28 20:24:59;;;;;;;16.03;12.17;;;10.70;99.90;;;;;;5014399;28;20475;-60
2021/10/28 20:27:26;;;;;;;16.27;9.70;;;10.70;99.90;;;;;;5014835;28;20452;-63
2021/10/28 20:29:53;;;;;;;12.67;10.37;;;10.70;99.90;;;;;;5014204;28;20473;-63
2021/10/28 20:32:20;;;;;;;14.47;10.50;;;10.70;99.90;;;;;;5014990;28;20424;-61
2021/10/28 20:34:52;;;;;;;17.70;12.03;;;10.70;99.90;;;;;;5014285;28;20474;-61
2021/10/28 20:37:19;;;;;;;15.60;12.13;;;10.70;99.90;;;;;;5014624;28;20405;-63
2021/10/28 20:39:47;;;;;;;15.87;11.70;;;10.60;99.90;;;;;;5014255;28;20452;-63
2021/10/28 20:42:16;;;;;;;13.87;10.80;;;10.60;99.90;;;;;;5015069;28;20437;-61
2021/10/28 20:44:46;;;;;;;16.00;12.20;;;10.60;99.90;;;;;;5014197;28;20453;-61
2021/10/28 20:47:13;;;;;;;30.67;13.87;;;10.60;99.90;;;;;;5014399;28;20421;-63
2021/10/28 20:49:40;;;;;;;13.87;11.80;;;10.60;99.90;;;;;;5013940;28;20520;-63
2021/10/28 20:52:07;;;;;;;13.77;11.43;;;10.60;99.90;;;;;;5014446;28;20540;-61
2021/10/28 20:54:35;;;;;;;19.10;13.53;;;10.50;99.90;;;;;;5031040;28;20475;-61
2021/10/28 20:57:04;;;;;;;17.80;12.67;;;10.50;99.90;;;;;;5015723;28;20429;-63
2021/10/28 20:59:32;;;;;;;17.10;13.23;;;10.50;99.90;;;;;;5014036;28;20568;-63
2021/10/28 21:01:59;;;;;;;17.83;13.87;;;10.50;99.90;;;;;;5014278;28;20487;-61
2021/10/28 21:04:27;;;;;;;20.70;13.60;;;10.40;99.90;;;;;;5028931;28;20556;-61
2021/10/28 21:06:54;;;;;;;16.70;12.80;;;10.50;99.90;;;;;;5014331;28;20436;-63
2021/10/28 21:09:21;;;;;;;17.77;13.60;;;10.40;99.90;;;;;;5050633;28;20471;-62
2021/10/28 21:11:49;;;;;;;17.90;13.90;;;10.30;99.90;;;;;;5053926;28;20485;-62
2021/10/28 21:14:16;;;;;;;19.50;13.80;;;10.30;99.90;;;;;;5040006;28;20983;-61
2021/10/28 21:16:44;;;;;;;18.80;14.63;;;10.20;99.90;;;;;;5014020;28;20430;-63
2021/10/28 21:19:12;;;;;;;17.13;13.30;;;10.20;99.90;;;;;;5012523;28;20576;-63
2021/10/28 21:21:40;;;;;;;18.70;13.20;;;10.10;99.90;;;;;;5012936;28;20647;-63
2021/10/28 21:24:07;;;;;;;21.37;13.80;;;10.00;99.90;;;;;;5028765;28;20465;-61
2021/10/28 21:26:35;;;;;;;18.67;13.63;;;10.00;99.90;;;;;;5013844;28;20787;-62
2021/10/28 21:29:03;;;;;;;17.40;12.87;;;10.00;99.90;;;;;;5013148;28;20460;-62
2021/10/28 21:31:30;;;;;;;18.83;12.70;;;10.00;99.90;;;;;;5013917;28;20430;-63
2021/10/28 21:33:57;;;;;;;15.37;11.90;;;9.90;99.90;;;;;;5013202;28;20469;-62
2021/10/28 21:36:24;;;;;;;15.47;10.80;;;9.80;99.90;;;;;;5013346;28;20445;-63
2021/10/28 21:38:51;;;;;;;12.27;10.30;;;9.80;99.90;;;;;;5036474;28;20463;-63
2021/10/28 21:41:18;;;;;;;11.30;9.07;;;9.90;99.90;;;;;;5053110;28;20530;-63
2021/10/28 21:43:46;;;;;;;11.63;8.00;;;10.00;99.90;;;;;;5046080;28;20467;-62
2021/10/28 21:46:12;;;;;;;7.33;5.80;;;10.10;99.90;;;;;;5053317;28;20434;-64
2021/10/28 21:48:39;;;;;;;9.40;4.30;;;10.20;99.90;;;;;;5052534;28;20462;-63